createdAt,value
2023-01-17T00:00:46.550Z,82.23
2023-01-17T00:01:46.570Z,82.33
2023-01-17T00:02:46.591Z,82.33
2023-01-17T00:03:46.573Z,82.23
2023-01-17T00:04:46.492Z,81.71
2023-01-17T00:05:46.488Z,82.02
2023-01-17T00:06:46.467Z,81.81
2023-01-17T00:07:46.463Z,81.92
2023-01-17T00:08:46.444Z,82.02
2023-01-17T00:09:46.439Z,82.44
2023-01-17T00:10:46.416Z,81.92
2023-01-17T00:11:46.408Z,81.61
2023-01-17T00:12:46.391Z,81.71
2023-01-17T00:13:46.391Z,81.50
2023-01-17T00:14:46.365Z,81.61
2023-01-17T00:15:46.375Z,81.29
2023-01-17T00:16:46.339Z,81.40
2023-01-17T00:17:46.326Z,81.71
2023-01-17T00:18:46.320Z,81.40
2023-01-17T00:19:46.326Z,81.61
2023-01-17T00:20:46.302Z,81.40
2023-01-17T00:21:46.277Z,81.61
2023-01-17T00:22:46.263Z,81.61
2023-01-17T00:23:46.249Z,81.92
2023-01-17T00:24:46.236Z,82.23
2023-01-17T00:25:46.238Z,82.12
2023-01-17T00:26:46.213Z,82.47
2023-01-17T00:27:46.197Z,82.58
2023-01-17T00:28:46.182Z,82.58
2023-01-17T00:29:46.170Z,82.26
2023-01-17T00:30:46.157Z,82.58
2023-01-17T00:31:46.175Z,82.47
2023-01-17T00:32:46.129Z,82.06
2023-01-17T00:33:46.118Z,81.95
2023-01-17T00:34:46.101Z,81.75
2023-01-17T00:35:46.123Z,81.43
2023-01-17T00:36:46.073Z,81.54
2023-01-17T00:37:46.066Z,81.75
2023-01-17T00:38:46.051Z,81.85
2023-01-17T00:39:46.038Z,82.26
2023-01-17T00:40:46.042Z,82.47
2023-01-17T00:41:46.016Z,82.61
2023-01-17T00:42:46.000Z,82.58
2023-01-17T00:43:45.982Z,82.61
2023-01-17T00:44:45.972Z,82.92
2023-01-17T00:45:45.960Z,82.82
2023-01-17T00:46:46.067Z,82.09
2023-01-17T00:47:45.938Z,81.99
2023-01-17T00:48:45.917Z,82.37
2023-01-17T00:49:45.908Z,82.82
2023-01-17T00:50:45.891Z,83.13
2023-01-17T00:51:45.905Z,83.86
2023-01-17T00:52:45.867Z,84.27
2023-01-17T00:53:45.859Z,84.17
2023-01-17T00:54:45.846Z,84.41
2023-01-17T00:55:45.831Z,84.21
2023-01-17T00:56:45.819Z,84.31
2023-01-17T00:57:45.802Z,84.52
2023-01-17T00:58:45.788Z,84.83
2023-01-17T00:59:45.774Z,85.04
2023-01-17T01:00:45.966Z,84.72
2023-01-17T01:01:45.951Z,85.04
2023-01-17T01:02:45.882Z,85.35
2023-01-17T01:03:45.722Z,84.93
2023-01-17T01:04:45.711Z,83.69
2023-01-17T01:05:45.705Z,83.65
2023-01-17T01:06:45.682Z,83.86
2023-01-17T01:07:45.698Z,83.23
2023-01-17T01:08:45.666Z,82.72
2023-01-17T01:09:45.641Z,82.72
2023-01-17T01:10:45.628Z,82.40
2023-01-17T01:11:45.626Z,82.51
2023-01-17T01:12:45.601Z,82.72
2023-01-17T01:13:45.591Z,82.82
2023-01-17T01:14:45.574Z,82.51
2023-01-17T01:15:45.561Z,82.61
2023-01-17T01:16:45.548Z,82.20
2023-01-17T01:17:45.535Z,82.09
2023-01-17T01:18:45.521Z,82.09
2023-01-17T01:19:45.513Z,82.30
2023-01-17T01:20:45.496Z,82.34
2023-01-17T01:21:45.483Z,81.89
2023-01-17T01:22:45.621Z,81.78
2023-01-17T01:23:45.483Z,81.99
2023-01-17T01:24:45.447Z,82.30
2023-01-17T01:25:45.431Z,82.40
2023-01-17T01:26:45.430Z,82.20
2023-01-17T01:27:45.407Z,82.03
2023-01-17T01:28:45.389Z,81.82
2023-01-17T01:29:45.378Z,81.61
2023-01-17T01:30:45.363Z,81.92
2023-01-17T01:31:45.410Z,82.23
2023-01-17T01:32:45.336Z,82.34
2023-01-17T01:33:45.329Z,82.34
2023-01-17T01:34:45.310Z,82.23
2023-01-17T01:35:45.303Z,82.13
2023-01-17T01:36:45.290Z,82.13
2023-01-17T01:37:45.273Z,82.23
2023-01-17T01:38:45.261Z,82.23
2023-01-17T01:39:45.290Z,82.34
2023-01-17T01:40:45.236Z,82.44
2023-01-17T01:41:45.222Z,82.59
2023-01-17T01:42:45.208Z,82.75
2023-01-17T01:43:45.230Z,82.55
2023-01-17T01:44:45.182Z,82.80
2023-01-17T01:45:45.193Z,82.23
2023-01-17T01:46:45.156Z,82.28
2023-01-17T01:47:45.145Z,82.23
2023-01-17T01:48:45.130Z,82.59
2023-01-17T01:49:45.118Z,83.00
2023-01-17T01:50:45.104Z,83.21
2023-01-17T01:51:45.092Z,82.90
2023-01-17T01:52:45.079Z,82.90
2023-01-17T01:53:45.068Z,82.90
2023-01-17T01:54:45.057Z,82.80
2023-01-17T01:55:45.064Z,82.90
2023-01-17T01:56:45.028Z,83.00
2023-01-17T01:57:45.014Z,83.31
2023-01-17T01:58:45.006Z,82.94
2023-01-17T01:59:44.996Z,83.21
2023-01-17T02:00:45.070Z,83.14
2023-01-17T02:01:45.055Z,83.04
2023-01-17T02:02:44.949Z,83.25
2023-01-17T02:03:44.965Z,83.45
2023-01-17T02:04:44.921Z,83.25
2023-01-17T02:05:44.911Z,83.56
2023-01-17T02:06:44.893Z,83.77
2023-01-17T02:07:44.900Z,83.97
2023-01-17T02:08:44.915Z,83.87
2023-01-17T02:09:44.854Z,83.77
2023-01-17T02:10:44.844Z,83.66
2023-01-17T02:11:44.858Z,83.87
2023-01-17T02:12:44.835Z,83.70
2023-01-17T02:13:44.805Z,83.39
2023-01-17T02:14:44.797Z,83.28
2023-01-17T02:15:44.788Z,83.49
2023-01-17T02:16:44.816Z,83.28
2023-01-17T02:17:44.755Z,83.18
2023-01-17T02:18:44.742Z,82.66
2023-01-17T02:19:44.735Z,82.76
2023-01-17T02:20:44.716Z,82.83
2023-01-17T02:21:44.703Z,82.94
2023-01-17T02:22:44.687Z,83.18
2023-01-17T02:23:44.679Z,82.73
2023-01-17T02:24:44.661Z,82.66
2023-01-17T02:25:44.654Z,82.52
2023-01-17T02:26:44.643Z,82.31
2023-01-17T02:27:44.658Z,82.00
2023-01-17T02:28:44.618Z,81.90
2023-01-17T02:29:44.606Z,82.21
2023-01-17T02:30:44.593Z,82.00
2023-01-17T02:31:44.627Z,81.90
2023-01-17T02:32:44.565Z,82.42
2023-01-17T02:33:44.557Z,82.73
2023-01-17T02:34:44.541Z,82.76
2023-01-17T02:35:44.528Z,83.18
2023-01-17T02:36:44.515Z,82.66
2023-01-17T02:37:44.509Z,81.73
2023-01-17T02:38:44.491Z,81.90
2023-01-17T02:39:44.481Z,82.25
2023-01-17T02:40:44.467Z,82.97
2023-01-17T02:41:44.458Z,83.08
2023-01-17T02:42:44.446Z,82.87
2023-01-17T02:43:44.457Z,82.76
2023-01-17T02:44:44.419Z,83.18
2023-01-17T02:45:44.438Z,83.08
2023-01-17T02:46:44.393Z,82.97
2023-01-17T02:47:44.383Z,82.76
2023-01-17T02:48:44.381Z,82.76
2023-01-17T02:49:44.357Z,82.14
2023-01-17T02:50:44.348Z,82.04
2023-01-17T02:51:44.331Z,82.25
2023-01-17T02:52:44.320Z,82.25
2023-01-17T02:53:44.323Z,82.25
2023-01-17T02:54:44.295Z,81.93
2023-01-17T02:55:44.278Z,81.31
2023-01-17T02:56:44.268Z,81.83
2023-01-17T02:57:44.265Z,81.83
2023-01-17T02:58:44.243Z,81.52
2023-01-17T02:59:44.261Z,81.93
2023-01-17T03:00:44.446Z,81.83
2023-01-17T03:01:44.375Z,81.93
2023-01-17T03:02:44.234Z,81.73
2023-01-17T03:03:44.191Z,81.31
2023-01-17T03:04:44.169Z,81.31
2023-01-17T03:05:44.151Z,81.21
2023-01-17T03:06:44.137Z,81.52
2023-01-17T03:07:44.130Z,81.62
2023-01-17T03:08:44.112Z,81.31
2023-01-17T03:09:44.100Z,81.21
2023-01-17T03:10:44.086Z,81.42
2023-01-17T03:11:44.082Z,81.62
2023-01-17T03:12:44.070Z,81.31
2023-01-17T03:13:44.071Z,80.59
2023-01-17T03:14:44.036Z,80.27
2023-01-17T03:15:44.065Z,80.07
2023-01-17T03:16:44.066Z,80.07
2023-01-17T03:17:43.995Z,79.96
2023-01-17T03:18:43.982Z,80.27
2023-01-17T03:19:43.966Z,79.33
2023-01-17T03:20:43.956Z,79.13
2023-01-17T03:21:43.942Z,78.92
2023-01-17T03:22:43.933Z,78.50
2023-01-17T03:23:43.919Z,78.61
2023-01-17T03:24:43.905Z,78.09
2023-01-17T03:25:43.892Z,78.40
2023-01-17T03:26:43.878Z,78.61
2023-01-17T03:27:43.868Z,78.50
2023-01-17T03:28:43.853Z,78.85
2023-01-17T03:29:43.842Z,79.06
2023-01-17T03:30:43.898Z,79.37
2023-01-17T03:31:43.860Z,79.06
2023-01-17T03:32:43.802Z,78.44
2023-01-17T03:33:43.800Z,78.23
2023-01-17T03:34:43.779Z,77.92
2023-01-17T03:35:43.768Z,78.13
2023-01-17T03:36:43.775Z,78.23
2023-01-17T03:37:43.758Z,77.92
2023-01-17T03:38:43.731Z,78.02
2023-01-17T03:39:43.721Z,78.33
2023-01-17T03:40:43.704Z,77.92
2023-01-17T03:41:43.697Z,77.61
2023-01-17T03:42:43.679Z,77.81
2023-01-17T03:43:43.669Z,78.13
2023-01-17T03:44:43.656Z,78.23
2023-01-17T03:45:43.735Z,77.92
2023-01-17T03:46:43.657Z,78.02
2023-01-17T03:47:43.647Z,78.37
2023-01-17T03:48:43.609Z,78.27
2023-01-17T03:49:43.626Z,78.47
2023-01-17T03:50:43.585Z,78.58
2023-01-17T03:51:43.577Z,78.58
2023-01-17T03:52:43.558Z,78.68
2023-01-17T03:53:43.547Z,78.68
2023-01-17T03:54:43.532Z,78.89
2023-01-17T03:55:43.525Z,78.99
2023-01-17T03:56:43.511Z,79.24
2023-01-17T03:57:43.497Z,79.24
2023-01-17T03:58:43.484Z,78.72
2023-01-17T03:59:43.497Z,79.03
2023-01-17T04:00:43.458Z,78.68
2023-01-17T04:01:43.626Z,78.51
2023-01-17T04:02:43.467Z,78.41
2023-01-17T04:03:43.452Z,78.30
2023-01-17T04:04:43.412Z,78.47
2023-01-17T04:05:43.400Z,78.61
2023-01-17T04:06:43.382Z,78.72
2023-01-17T04:07:43.371Z,78.72
2023-01-17T04:08:43.356Z,78.82
2023-01-17T04:09:43.349Z,78.93
2023-01-17T04:10:43.339Z,79.03
2023-01-17T04:11:43.333Z,78.93
2023-01-17T04:12:43.306Z,78.72
2023-01-17T04:13:43.295Z,78.82
2023-01-17T04:14:43.283Z,79.03
2023-01-17T04:15:43.269Z,79.34
2023-01-17T04:16:43.343Z,79.65
2023-01-17T04:17:43.244Z,79.76
2023-01-17T04:18:43.230Z,79.76
2023-01-17T04:19:43.245Z,79.87
2023-01-17T04:20:43.204Z,79.34
2023-01-17T04:21:43.193Z,79.55
2023-01-17T04:22:43.193Z,79.76
2023-01-17T04:23:43.170Z,80.07
2023-01-17T04:24:43.163Z,80.28
2023-01-17T04:25:43.146Z,80.38
2023-01-17T04:26:43.134Z,80.63
2023-01-17T04:27:43.117Z,80.84
2023-01-17T04:28:43.112Z,81.04
2023-01-17T04:29:45.287Z,80.94
2023-01-17T04:30:43.112Z,80.84
2023-01-17T04:31:43.114Z,80.90
2023-01-17T04:32:43.053Z,80.84
2023-01-17T04:33:43.053Z,80.07
2023-01-17T04:34:43.027Z,80.18
2023-01-17T04:35:43.083Z,80.18
2023-01-17T04:36:43.010Z,80.49
2023-01-17T04:37:42.991Z,80.70
2023-01-17T04:38:42.977Z,80.90
2023-01-17T04:39:42.968Z,81.01
2023-01-17T04:40:42.952Z,81.11
2023-01-17T04:41:42.939Z,80.70
2023-01-17T04:42:42.930Z,80.49
2023-01-17T04:43:42.915Z,80.59
2023-01-17T04:44:42.902Z,80.38
2023-01-17T04:45:42.890Z,79.34
2023-01-17T04:46:42.891Z,79.65
2023-01-17T04:47:42.861Z,79.87
2023-01-17T04:48:42.852Z,79.87
2023-01-17T04:49:44.187Z,80.18
2023-01-17T04:50:42.833Z,80.49
2023-01-17T04:51:42.839Z,80.90
2023-01-17T04:52:42.801Z,80.80
2023-01-17T04:53:42.790Z,80.70
2023-01-17T04:54:42.778Z,80.38
2023-01-17T04:55:42.762Z,80.28
2023-01-17T04:56:42.755Z,80.59
2023-01-17T04:57:42.738Z,81.01
2023-01-17T04:58:42.728Z,81.35
2023-01-17T04:59:42.711Z,81.46
2023-01-17T05:00:42.711Z,81.46
2023-01-17T05:01:42.901Z,81.67
2023-01-17T05:02:42.728Z,81.92
2023-01-17T05:03:42.662Z,81.77
2023-01-17T05:04:42.649Z,81.77
2023-01-17T05:05:42.656Z,81.87
2023-01-17T05:06:42.623Z,81.98
2023-01-17T05:07:42.707Z,82.33
2023-01-17T05:08:42.597Z,82.23
2023-01-17T05:09:42.584Z,82.12
2023-01-17T05:10:42.578Z,82.23
2023-01-17T05:11:42.557Z,82.54
2023-01-17T05:12:42.572Z,82.95
2023-01-17T05:13:42.532Z,83.16
2023-01-17T05:14:42.529Z,83.47
2023-01-17T05:15:42.572Z,83.79
2023-01-17T05:16:42.504Z,84.03
2023-01-17T05:17:42.484Z,84.35
2023-01-17T05:18:42.470Z,84.45
2023-01-17T05:19:42.456Z,84.66
2023-01-17T05:20:42.443Z,84.55
2023-01-17T05:21:42.431Z,84.55
2023-01-17T05:22:42.419Z,84.66
2023-01-17T05:23:42.432Z,84.66
2023-01-17T05:24:42.393Z,84.66
2023-01-17T05:25:42.380Z,84.55
2023-01-17T05:26:42.368Z,84.55
2023-01-17T05:27:42.352Z,84.66
2023-01-17T05:28:42.344Z,84.45
2023-01-17T05:29:42.351Z,84.24
2023-01-17T05:30:42.404Z,84.14
2023-01-17T05:31:42.302Z,84.03
2023-01-17T05:32:42.290Z,84.03
2023-01-17T05:33:42.278Z,84.14
2023-01-17T05:34:42.267Z,84.24
2023-01-17T05:35:42.259Z,84.35
2023-01-17T05:36:42.243Z,84.55
2023-01-17T05:37:42.230Z,84.70
2023-01-17T05:38:42.215Z,84.70
2023-01-17T05:39:42.231Z,84.91
2023-01-17T05:40:42.193Z,85.11
2023-01-17T05:41:42.175Z,85.22
2023-01-17T05:42:42.164Z,85.11
2023-01-17T05:43:42.152Z,85.01
2023-01-17T05:44:42.149Z,84.80
2023-01-17T05:45:42.127Z,84.70
2023-01-17T05:46:42.123Z,84.70
2023-01-17T05:47:42.100Z,84.91
2023-01-17T05:48:42.089Z,84.91
2023-01-17T05:50:42.082Z,84.38
2023-01-17T05:51:42.052Z,84.38
2023-01-17T05:52:42.035Z,84.28
2023-01-17T05:53:42.022Z,84.49
2023-01-17T05:54:42.010Z,84.60
2023-01-17T05:55:42.034Z,84.38
2023-01-17T05:56:41.985Z,84.28
2023-01-17T05:57:41.974Z,84.49
2023-01-17T05:58:41.982Z,84.60
2023-01-17T05:59:41.947Z,84.63
2023-01-17T06:00:41.936Z,84.63
2023-01-17T06:01:41.927Z,84.63
2023-01-17T06:02:41.968Z,84.74
2023-01-17T06:03:41.895Z,84.74
2023-01-17T06:04:41.923Z,84.53
2023-01-17T06:05:41.874Z,84.53
2023-01-17T06:06:41.858Z,84.63
2023-01-17T06:07:41.843Z,84.42
2023-01-17T06:08:41.864Z,84.42
2023-01-17T06:09:41.818Z,84.63
2023-01-17T06:10:41.814Z,84.63
2023-01-17T06:11:41.820Z,84.74
2023-01-17T06:12:41.798Z,84.53
2023-01-17T06:13:41.769Z,84.63
2023-01-17T06:14:41.766Z,84.00
2023-01-17T06:15:41.807Z,83.90
2023-01-17T06:16:41.733Z,83.80
2023-01-17T06:17:41.729Z,83.59
2023-01-17T06:18:41.720Z,83.59
2023-01-17T06:19:41.696Z,83.59
2023-01-17T06:20:41.690Z,83.69
2023-01-17T06:21:41.666Z,83.69
2023-01-17T06:22:41.654Z,83.90
2023-01-17T06:23:41.646Z,83.80
2023-01-17T06:24:41.629Z,83.94
2023-01-17T06:25:41.630Z,83.80
2023-01-17T06:26:41.604Z,83.59
2023-01-17T06:27:41.619Z,83.48
2023-01-17T06:28:41.580Z,83.59
2023-01-17T06:29:41.565Z,83.69
2023-01-17T06:30:41.555Z,83.69
2023-01-17T06:31:41.537Z,84.05
2023-01-17T06:32:41.530Z,84.25
2023-01-17T06:33:41.513Z,84.36
2023-01-17T06:34:41.504Z,84.57
2023-01-17T06:35:41.496Z,84.67
2023-01-17T06:36:41.479Z,84.77
2023-01-17T06:37:41.464Z,84.77
2023-01-17T06:38:41.453Z,84.82
2023-01-17T06:39:41.439Z,84.77
2023-01-17T06:40:41.428Z,84.67
2023-01-17T06:41:41.413Z,84.67
2023-01-17T06:42:41.403Z,84.57
2023-01-17T06:43:41.418Z,84.36
2023-01-17T06:44:41.382Z,84.25
2023-01-17T06:45:41.371Z,84.15
2023-01-17T06:46:41.491Z,84.25
2023-01-17T06:47:41.339Z,84.25
2023-01-17T06:48:41.329Z,84.50
2023-01-17T06:49:41.326Z,84.82
2023-01-17T06:50:41.313Z,84.92
2023-01-17T06:51:43.531Z,85.13
2023-01-17T06:52:41.276Z,85.54
2023-01-17T06:53:41.263Z,85.90
2023-01-17T06:54:41.251Z,86.31
2023-01-17T06:55:41.241Z,86.42
2023-01-17T06:56:41.238Z,86.52
2023-01-17T06:57:41.212Z,86.63
2023-01-17T06:58:41.202Z,86.84
2023-01-17T06:59:41.212Z,86.94
2023-01-17T07:00:41.358Z,87.19
2023-01-17T07:01:41.194Z,87.50
2023-01-17T07:02:41.151Z,87.92
2023-01-17T07:03:41.142Z,88.03
2023-01-17T07:04:41.129Z,88.17
2023-01-17T07:05:41.111Z,88.38
2023-01-17T07:06:41.102Z,88.59
2023-01-17T07:07:41.088Z,88.69
2023-01-17T07:08:41.085Z,88.69
2023-01-17T07:09:41.063Z,88.65
2023-01-17T07:10:41.056Z,88.44
2023-01-17T07:11:41.036Z,88.34
2023-01-17T07:12:41.025Z,88.23
2023-01-17T07:13:41.013Z,88.13
2023-01-17T07:14:41.018Z,88.13
2023-01-17T07:15:41.022Z,88.13
2023-01-17T07:16:40.973Z,87.88
2023-01-17T07:17:40.961Z,87.67
2023-01-17T07:18:40.949Z,87.46
2023-01-17T07:19:40.935Z,87.25
2023-01-17T07:20:40.924Z,87.36
2023-01-17T07:21:40.920Z,87.57
2023-01-17T07:22:40.899Z,87.78
2023-01-17T07:23:40.882Z,87.78
2023-01-17T07:24:40.872Z,87.88
2023-01-17T07:25:40.876Z,87.98
2023-01-17T07:26:40.849Z,87.98
2023-01-17T07:27:40.835Z,88.09
2023-01-17T07:28:40.826Z,87.98
2023-01-17T07:29:40.809Z,87.98
2023-01-17T07:30:40.808Z,88.34
2023-01-17T07:31:40.853Z,88.65
2023-01-17T07:32:40.775Z,88.97
2023-01-17T07:33:40.761Z,89.07
2023-01-17T07:34:40.750Z,88.97
2023-01-17T07:35:40.732Z,88.75
2023-01-17T07:36:40.726Z,88.86
2023-01-17T07:37:40.708Z,88.86
2023-01-17T07:38:40.700Z,89.17
2023-01-17T07:39:40.683Z,89.28
2023-01-17T07:40:42.303Z,89.17
2023-01-17T07:41:40.658Z,89.17
2023-01-17T07:42:40.649Z,89.38
2023-01-17T07:43:40.633Z,89.48
2023-01-17T07:44:41.370Z,89.69
2023-01-17T07:45:40.610Z,89.59
2023-01-17T07:46:40.617Z,89.69
2023-01-17T07:47:40.607Z,89.80
2023-01-17T07:48:40.572Z,89.84
2023-01-17T07:49:40.558Z,90.05
2023-01-17T07:50:40.561Z,90.57
2023-01-17T07:51:40.540Z,90.42
2023-01-17T07:52:40.534Z,90.47
2023-01-17T07:53:40.506Z,90.36
2023-01-17T07:54:40.499Z,90.36
2023-01-17T07:55:40.482Z,90.26
2023-01-17T07:56:40.471Z,90.16
2023-01-17T07:57:40.461Z,90.36
2023-01-17T07:58:40.452Z,90.88
2023-01-17T07:59:40.437Z,91.30
2023-01-17T08:00:40.436Z,91.72
2023-01-17T08:01:40.544Z,91.61
2023-01-17T08:02:40.398Z,91.51
2023-01-17T08:03:40.517Z,91.26
2023-01-17T08:04:40.370Z,91.05
2023-01-17T08:05:40.370Z,90.74
2023-01-17T08:06:40.344Z,90.53
2023-01-17T08:07:40.340Z,90.63
2023-01-17T08:08:40.322Z,90.38
2023-01-17T08:09:40.306Z,90.17
2023-01-17T08:10:40.293Z,89.89
2023-01-17T08:11:40.280Z,88.16
2023-01-17T08:12:40.269Z,85.19
2023-01-17T08:13:40.256Z,81.78
2023-01-17T08:14:40.246Z,77.49
2023-01-17T08:15:40.240Z,74.70
2023-01-17T08:16:40.344Z,70.88
2023-01-17T08:17:40.204Z,69.48
2023-01-17T08:18:40.204Z,66.70
2023-01-17T08:19:40.205Z,65.50
2023-01-17T08:20:40.167Z,64.16
2023-01-17T08:21:40.154Z,67.03
2023-01-17T08:22:40.140Z,67.64
2023-01-17T08:23:40.130Z,70.19
2023-01-17T08:24:40.115Z,67.24
2023-01-17T08:25:40.106Z,67.44
2023-01-17T08:26:40.090Z,67.38
2023-01-17T08:27:40.075Z,66.49
2023-01-17T08:28:40.063Z,66.36
2023-01-17T08:29:40.050Z,63.47
2023-01-17T08:30:40.042Z,60.40
2023-01-17T08:31:40.089Z,58.34
2023-01-17T08:32:40.016Z,56.07
2023-01-17T08:33:40.004Z,54.30
2023-01-17T08:34:39.985Z,54.15
2023-01-17T08:35:40.001Z,53.61
2023-01-17T08:36:39.960Z,52.60
2023-01-17T08:37:39.945Z,52.77
2023-01-17T08:38:39.932Z,51.73
2023-01-17T08:39:39.928Z,52.03
2023-01-17T08:40:39.906Z,51.98
2023-01-17T08:41:39.895Z,51.70
2023-01-17T08:42:39.879Z,50.43
2023-01-17T08:43:39.889Z,49.95
2023-01-17T08:44:39.858Z,49.82
2023-01-17T08:45:39.871Z,49.59
2023-01-17T08:46:39.835Z,48.96
2023-01-17T08:48:39.801Z,47.92
2023-01-17T08:49:39.791Z,49.01
2023-01-17T08:50:39.778Z,49.09
2023-01-17T08:51:39.793Z,48.45
2023-01-17T08:52:39.751Z,48.37
2023-01-17T08:53:39.742Z,48.57
2023-01-17T08:54:39.731Z,49.26
2023-01-17T08:55:39.715Z,50.58
2023-01-17T08:56:39.700Z,49.51
2023-01-17T08:57:39.692Z,49.11
2023-01-17T08:58:39.680Z,49.76
2023-01-17T08:59:39.658Z,50.17
2023-01-17T09:00:39.648Z,50.15
2023-01-17T09:01:39.771Z,49.23
2023-01-17T09:02:39.622Z,50.65
2023-01-17T09:03:40.952Z,52.52
2023-01-17T09:04:39.698Z,52.44
2023-01-17T09:05:39.588Z,50.61
2023-01-17T09:06:39.629Z,50.58
2023-01-17T09:07:39.620Z,50.53
2023-01-17T09:08:39.543Z,49.13
2023-01-17T09:09:39.534Z,51.09
2023-01-17T09:10:39.519Z,50.13
2023-01-17T09:11:39.510Z,49.62
2023-01-17T09:12:39.490Z,49.95
2023-01-17T09:13:39.517Z,50.91
2023-01-17T09:14:39.470Z,51.02
2023-01-17T09:15:39.468Z,48.76
2023-01-17T09:16:39.479Z,48.88
2023-01-17T09:17:39.432Z,48.98
2023-01-17T09:18:39.418Z,48.57
2023-01-17T09:19:39.442Z,48.45
2023-01-17T09:21:39.392Z,49.64
2023-01-17T09:22:39.369Z,49.28
2023-01-17T09:23:39.383Z,51.40
2023-01-17T09:24:39.346Z,50.00
2023-01-17T09:25:39.337Z,48.98
2023-01-17T09:26:39.318Z,49.53
2023-01-17T09:27:39.311Z,47.90
2023-01-17T09:28:39.290Z,47.59
2023-01-17T09:29:39.282Z,47.97
2023-01-17T09:30:39.271Z,47.73
2023-01-17T09:31:39.256Z,46.18
2023-01-17T09:32:39.243Z,45.20
2023-01-17T09:33:39.234Z,43.89
2023-01-17T09:34:39.218Z,44.89
2023-01-17T09:35:39.208Z,46.24
2023-01-17T09:36:39.196Z,49.69
2023-01-17T09:37:39.183Z,49.97
2023-01-17T09:38:39.166Z,49.94
2023-01-17T09:39:39.193Z,54.05
2023-01-17T09:40:39.141Z,54.18
2023-01-17T09:41:39.131Z,55.15
2023-01-17T09:42:39.119Z,56.02
2023-01-17T09:43:40.893Z,56.73
2023-01-17T09:44:39.094Z,54.99
2023-01-17T09:45:39.102Z,52.77
2023-01-17T09:46:39.076Z,53.94
2023-01-17T09:47:39.056Z,51.60
2023-01-17T09:48:39.042Z,50.39
2023-01-17T09:49:39.045Z,48.71
2023-01-17T09:50:39.022Z,48.11
2023-01-17T09:51:39.007Z,44.97
2023-01-17T09:52:38.993Z,45.86
2023-01-17T09:53:38.985Z,48.05
2023-01-17T09:54:38.969Z,52.39
2023-01-17T09:55:38.987Z,53.57
2023-01-17T09:56:38.947Z,51.93
2023-01-17T09:57:38.934Z,51.73
2023-01-17T09:58:38.920Z,48.59
2023-01-17T09:59:38.914Z,47.50
2023-01-17T10:00:38.893Z,44.74
2023-01-17T10:01:39.073Z,43.87
2023-01-17T10:02:39.049Z,42.59
2023-01-17T10:03:39.126Z,43.85
2023-01-17T10:04:38.846Z,45.41
2023-01-17T10:05:38.836Z,46.66
2023-01-17T10:06:38.830Z,47.86
2023-01-17T10:07:38.811Z,49.22
2023-01-17T10:08:38.801Z,52.20
2023-01-17T10:09:38.787Z,54.99
2023-01-17T10:10:38.773Z,56.10
2023-01-17T10:11:38.785Z,56.12
2023-01-17T10:12:38.750Z,57.54
2023-01-17T10:13:38.740Z,56.46
2023-01-17T10:14:38.728Z,56.56
2023-01-17T10:15:38.714Z,56.10
2023-01-17T10:16:38.747Z,55.89
2023-01-17T10:17:38.715Z,55.66
2023-01-17T10:18:38.675Z,57.82
2023-01-17T10:19:38.664Z,59.34
2023-01-17T10:20:38.649Z,59.11
2023-01-17T10:21:38.640Z,58.58
2023-01-17T10:22:38.625Z,56.07
2023-01-17T10:23:38.624Z,55.45
2023-01-17T10:24:38.611Z,52.54
2023-01-17T10:25:38.634Z,51.14
2023-01-17T10:26:38.579Z,49.79
2023-01-17T10:27:38.630Z,51.36
2023-01-17T10:28:38.564Z,54.02
2023-01-17T10:29:38.551Z,57.02
2023-01-17T10:30:38.566Z,54.12
2023-01-17T10:31:38.541Z,54.69
2023-01-17T10:32:38.504Z,55.92
2023-01-17T10:33:38.497Z,55.84
2023-01-17T10:34:38.481Z,54.82
2023-01-17T10:35:38.505Z,51.34
2023-01-17T10:36:38.462Z,49.92
2023-01-17T10:37:38.448Z,50.36
2023-01-17T10:38:38.435Z,49.56
2023-01-17T10:39:38.423Z,48.76
2023-01-17T10:40:38.442Z,47.19
2023-01-17T10:41:38.398Z,46.63
2023-01-17T10:42:38.384Z,46.23
2023-01-17T10:43:38.398Z,44.66
2023-01-17T10:44:38.362Z,46.29
2023-01-17T10:45:38.368Z,45.31
2023-01-17T10:46:38.339Z,45.62
2023-01-17T10:47:38.330Z,45.46
2023-01-17T10:48:38.313Z,46.52
2023-01-17T10:49:38.306Z,46.88
2023-01-17T10:50:38.294Z,47.92
2023-01-17T10:51:38.304Z,48.03
2023-01-17T10:52:38.271Z,47.33
2023-01-17T10:53:38.265Z,46.28
2023-01-17T10:54:38.250Z,48.74
2023-01-17T10:55:38.238Z,49.65
2023-01-17T10:56:38.228Z,50.41
2023-01-17T10:57:38.224Z,51.84
2023-01-17T10:58:38.214Z,51.87
2023-01-17T10:59:38.235Z,50.84
2023-01-17T11:00:38.183Z,53.58
2023-01-17T11:01:38.291Z,54.48
2023-01-17T11:02:38.183Z,56.59
2023-01-17T11:03:38.169Z,56.84
2023-01-17T11:04:38.161Z,54.61
2023-01-17T11:05:38.124Z,55.56
2023-01-17T11:06:49.709Z,55.35
2023-01-17T11:07:40.898Z,55.35
2023-01-17T11:08:38.085Z,55.51
2023-01-17T11:09:38.081Z,54.33
2023-01-17T11:10:38.067Z,51.75
2023-01-17T11:11:38.051Z,47.54
2023-01-17T11:12:38.040Z,47.46
2023-01-17T11:13:38.032Z,48.10
2023-01-17T11:14:38.017Z,48.19
2023-01-17T11:15:38.064Z,50.17
2023-01-17T11:16:37.992Z,48.57
2023-01-17T11:17:37.984Z,46.66
2023-01-17T11:18:37.968Z,45.89
2023-01-17T11:19:37.956Z,44.50
2023-01-17T11:20:37.951Z,42.61
2023-01-17T11:21:37.933Z,41.37
2023-01-17T11:22:37.919Z,40.97
2023-01-17T11:23:37.907Z,40.36
2023-01-17T11:24:37.896Z,39.63
2023-01-17T11:25:37.885Z,40.03
2023-01-17T11:26:37.879Z,40.85
2023-01-17T11:27:37.860Z,40.10
2023-01-17T11:28:37.853Z,41.07
2023-01-17T11:29:37.839Z,43.07
2023-01-17T11:30:43.880Z,42.89
2023-01-17T11:31:37.823Z,42.40
2023-01-17T11:32:37.801Z,44.89
2023-01-17T11:33:37.794Z,46.66
2023-01-17T11:34:37.779Z,46.56
2023-01-17T11:35:37.776Z,44.12
2023-01-17T11:36:37.755Z,41.82
2023-01-17T11:37:37.774Z,41.16
2023-01-17T11:38:37.732Z,40.28
2023-01-17T11:39:37.722Z,38.51
2023-01-17T11:40:37.714Z,37.30
2023-01-17T11:41:37.699Z,38.48
2023-01-17T11:42:37.691Z,40.69
2023-01-17T11:43:37.676Z,41.16
2023-01-17T11:44:37.663Z,39.92
2023-01-17T11:45:37.653Z,39.65
2023-01-17T11:46:37.779Z,39.71
2023-01-17T11:47:37.633Z,38.65
2023-01-17T11:48:37.613Z,39.02
2023-01-17T11:49:37.609Z,38.26
2023-01-17T11:50:37.609Z,36.81
2023-01-17T11:51:37.593Z,36.87
2023-01-17T11:52:37.573Z,36.23
2023-01-17T11:53:37.567Z,35.39
2023-01-17T11:54:37.545Z,38.37
2023-01-17T11:55:37.553Z,40.27
2023-01-17T11:56:37.549Z,42.04
2023-01-17T11:57:37.511Z,41.37
2023-01-17T11:58:37.496Z,39.59
2023-01-17T11:59:37.588Z,40.80
2023-01-17T12:00:37.472Z,39.81
2023-01-17T12:01:37.464Z,39.45
2023-01-17T12:02:37.474Z,38.04
2023-01-17T12:03:37.496Z,38.95
2023-01-17T12:04:37.605Z,40.04
2023-01-17T12:05:37.418Z,42.54
2023-01-17T12:06:47.937Z,44.54
2023-01-17T12:07:37.389Z,45.81
2023-01-17T12:08:37.378Z,46.29
2023-01-17T12:09:37.364Z,46.52
2023-01-17T12:10:37.349Z,47.03
2023-01-17T12:11:37.336Z,47.36
2023-01-17T12:12:37.327Z,47.40
2023-01-17T12:13:37.316Z,49.56
2023-01-17T12:14:37.297Z,49.68
2023-01-17T12:15:37.321Z,50.20
2023-01-17T12:16:37.273Z,49.60
2023-01-17T12:17:37.264Z,49.40
2023-01-17T12:18:37.282Z,49.70
2023-01-17T12:19:37.234Z,50.12
2023-01-17T12:20:37.219Z,49.19
2023-01-17T12:21:37.205Z,49.09
2023-01-17T12:22:37.201Z,49.91
2023-01-17T12:23:37.184Z,50.09
2023-01-17T12:24:37.168Z,49.76
2023-01-17T12:25:37.168Z,47.54
2023-01-17T12:26:37.142Z,46.74
2023-01-17T12:27:37.131Z,46.92
2023-01-17T12:28:37.135Z,46.85
2023-01-17T12:29:37.116Z,47.25
2023-01-17T12:30:37.090Z,47.38
2023-01-17T12:31:37.140Z,48.12
2023-01-17T12:32:37.068Z,48.99
2023-01-17T12:33:37.077Z,49.89
2023-01-17T12:34:37.066Z,50.50
2023-01-17T12:35:37.036Z,49.59
2023-01-17T12:36:37.011Z,48.62
2023-01-17T12:37:37.194Z,47.72
2023-01-17T12:38:36.988Z,47.72
2023-01-17T12:39:37.004Z,48.44
2023-01-17T12:40:36.959Z,47.95
2023-01-17T12:41:36.947Z,47.08
2023-01-17T12:42:36.936Z,46.70
2023-01-17T12:43:36.928Z,46.75
2023-01-17T12:44:36.905Z,45.39
2023-01-17T12:45:36.908Z,44.71
2023-01-17T12:46:36.940Z,43.68
2023-01-17T12:47:36.870Z,41.07
2023-01-17T12:48:36.860Z,39.40
2023-01-17T12:49:36.860Z,38.73
2023-01-17T12:50:36.858Z,36.87
2023-01-17T12:51:36.851Z,36.13
2023-01-17T12:52:36.806Z,36.38
2023-01-17T12:53:36.805Z,34.60
2023-01-17T12:54:36.829Z,36.67
2023-01-17T12:55:36.794Z,36.89